Time;durP1;ratioP1;P1;durP2;ratioP2;P2;SDS_P1;SDS_P2;PMS_P1;PMS_P2;Temp;Humidity;BMP_temperature;BMP_pressure;BME280_temperature;BME280_humidity;BME280_pressure;Samples;Min_cycle;Max_cycle;Signal;HPM_P1;HPM_P2
2023/04/16 00:01:47;;;;;;;;;;;9.70;68.80;;;;;;4072834;29;20026;-86
2023/04/16 00:03:54;;;;;;;;;;;9.70;68.80;;;;;;4054132;29;19916;-88
2023/04/16 00:05:55;;;;;;;;;;;9.70;68.80;;;;;;4089149;28;20001;-87
2023/04/16 00:07:55;;;;;;;;;;;9.80;68.90;;;;;;4086714;28;19918;-86
2023/04/16 00:09:58;;;;;;;;;;;9.70;68.90;;;;;;4072175;29;19978;-86
2023/04/16 00:11:59;;;;;;;;;;;9.70;68.90;;;;;;4078240;29;19910;-86
2023/04/16 00:14:00;;;;;;;;;;;9.70;68.90;;;;;;4088759;28;19959;-88
2023/04/16 00:16:00;;;;;;;;;;;9.70;68.90;;;;;;4090242;29;19998;-86
2023/04/16 00:18:01;;;;;;;;;;;9.80;69.00;;;;;;4078775;29;19918;-88
2023/04/16 00:20:01;;;;;;;;;;;9.80;69.00;;;;;;4077223;29;19919;-86
2023/04/16 00:22:08;;;;;;;;;;;9.70;68.90;;;;;;4079180;29;19922;-86
2023/04/16 00:24:08;;;;;;;;;;;9.70;68.90;;;;;;4074996;29;19918;-86
2023/04/16 00:26:09;;;;;;;;;;;9.80;69.00;;;;;;4062140;29;20309;-88
2023/04/16 00:28:09;;;;;;;;;;;9.80;69.00;;;;;;4092271;28;19985;-86
2023/04/16 00:30:10;;;;;;;;;;;9.70;68.90;;;;;;4077331;29;19922;-87
2023/04/16 00:32:12;;;;;;;;;;;9.70;68.90;;;;;;4059914;29;19974;-87
2023/04/16 00:34:13;;;;;;;;;;;9.70;68.90;;;;;;4076289;29;20289;-86
2023/04/16 00:36:19;;;;;;;;;;;9.70;69.00;;;;;;4077372;29;19915;-85
2023/04/16 00:38:19;;;;;;;;;;;9.70;69.00;;;;;;4073860;29;19943;-86
2023/04/16 00:40:37;;;;;;;;;;;9.80;69.10;;;;;;4074740;29;19994;-88
2023/04/16 00:42:58;;;;;;;;;;;9.70;68.90;;;;;;4088017;28;20544;-87
2023/04/16 00:45:19;;;;;;;;;;;9.70;69.10;;;;;;4076822;28;19918;-86
2023/04/16 00:47:39;;;;;;;;;;;9.80;69.10;;;;;;4075440;29;19930;-86
2023/04/16 00:50:06;;;;;;;;;;;9.70;68.90;;;;;;4067884;29;19915;-87
2023/04/16 00:52:33;;;;;;;;;;;9.70;68.90;;;;;;4072305;29;19928;-86
2023/04/16 00:54:34;;;;;;;;;;;9.70;68.90;;;;;;4081835;29;19948;-86
2023/04/16 00:56:35;;;;;;;;;;;9.80;69.00;;;;;;4066427;29;19930;-89
2023/04/16 00:58:36;;;;;;;;;;;9.70;68.90;;;;;;4080910;29;20006;-88
2023/04/16 01:00:36;;;;;;;;;;;9.70;68.90;;;;;;4083430;29;20158;-86
2023/04/16 01:02:37;;;;;;;;;;;9.80;69.00;;;;;;4078850;29;19926;-86
2023/04/16 01:04:38;;;;;;;;;;;9.70;68.90;;;;;;4062558;29;19974;-86
2023/04/16 01:06:39;;;;;;;;;;;9.70;68.90;;;;;;4080442;29;19919;-86
2023/04/16 01:08:39;;;;;;;;;;;9.80;68.90;;;;;;4073099;29;21423;-88
2023/04/16 01:10:40;;;;;;;;;;;9.70;68.90;;;;;;4078497;29;19947;-88
2023/04/16 01:12:40;;;;;;;;;;;9.60;68.70;;;;;;4078706;29;19957;-86
2023/04/16 01:14:41;;;;;;;;;;;9.70;68.70;;;;;;4077897;29;19970;-85
2023/04/16 01:16:42;;;;;;;;;;;9.60;68.70;;;;;;4079965;29;19914;-89
2023/04/16 01:18:52;;;;;;;;;;;9.60;68.60;;;;;;4079650;29;19951;-86
2023/04/16 01:20:52;;;;;;;;;;;9.60;68.50;;;;;;4078098;28;20405;-87
2023/04/16 01:22:53;;;;;;;;;;;9.70;68.70;;;;;;4089820;29;19977;-88
2023/04/16 01:24:53;;;;;;;;;;;9.60;68.60;;;;;;4098078;28;19910;-89
2023/04/16 01:26:56;;;;;;;;;;;9.60;68.50;;;;;;4082358;28;20265;-86
2023/04/16 01:28:57;;;;;;;;;;;9.60;68.50;;;;;;4091842;28;19957;-87
2023/04/16 01:30:58;;;;;;;;;;;9.50;68.40;;;;;;4078544;29;20348;-85
2023/04/16 01:32:59;;;;;;;;;;;9.50;68.50;;;;;;4076429;29;19911;-88
2023/04/16 01:34:59;;;;;;;;;;;9.60;68.60;;;;;;4084270;29;19910;-86
2023/04/16 01:37:26;;;;;;;;;;;9.50;68.50;;;;;;4089854;28;19915;-86
2023/04/16 01:39:26;;;;;;;;;;;9.40;68.40;;;;;;4072541;29;20432;-86
2023/04/16 01:41:27;;;;;;;;;;;9.50;68.60;;;;;;4078688;29;19942;-86
2023/04/16 01:43:28;;;;;;;;;;;9.50;68.50;;;;;;4074834;29;20398;-88
2023/04/16 01:45:32;;;;;;;;;;;9.50;68.60;;;;;;4078522;29;20354;-86
2023/04/16 01:47:32;;;;;;;;;;;9.50;68.60;;;;;;4072161;29;19957;-85
2023/04/16 01:49:33;;;;;;;;;;;9.50;68.60;;;;;;4077006;29;20013;-86
2023/04/16 01:51:34;;;;;;;;;;;9.40;69.00;;;;;;4077824;29;19954;-88
2023/04/16 01:53:35;;;;;;;;;;;9.50;68.80;;;;;;4077800;29;20445;-86
2023/04/16 01:55:35;;;;;;;;;;;9.50;68.90;;;;;;4077648;29;19926;-86
2023/04/16 01:57:36;;;;;;;;;;;9.50;68.90;;;;;;4078061;29;20420;-86
2023/04/16 01:59:37;;;;;;;;;;;9.40;68.80;;;;;;4079738;29;19914;-87
2023/04/16 02:01:55;;;;;;;;;;;9.40;68.90;;;;;;4077219;29;19918;-85
2023/04/16 02:03:56;;;;;;;;;;;9.40;68.80;;;;;;4071913;29;20365;-86
2023/04/16 02:05:57;;;;;;;;;;;9.50;68.90;;;;;;4076906;29;19915;-88
2023/04/16 02:07:58;;;;;;;;;;;9.40;69.00;;;;;;4074985;29;19965;-86
2023/04/16 02:09:58;;;;;;;;;;;9.40;69.00;;;;;;4078522;29;19923;-86
2023/04/16 02:12:01;;;;;;;;;;;9.40;69.00;;;;;;4057359;29;19974;-87
2023/04/16 02:14:05;;;;;;;;;;;9.50;69.10;;;;;;4075359;29;19932;-87
2023/04/16 02:16:05;;;;;;;;;;;9.40;69.10;;;;;;4074701;29;19945;-88
2023/04/16 02:18:06;;;;;;;;;;;9.40;69.10;;;;;;4076599;29;19915;-86
2023/04/16 02:20:09;;;;;;;;;;;9.50;69.20;;;;;;4060412;29;19926;-86
2023/04/16 02:22:09;;;;;;;;;;;9.40;69.10;;;;;;4077051;29;20632;-86
2023/04/16 02:24:12;;;;;;;;;;;9.50;69.30;;;;;;4075147;29;19938;-87
2023/04/16 02:26:13;;;;;;;;;;;9.40;69.20;;;;;;4077721;29;19959;-86
2023/04/16 02:28:14;;;;;;;;;;;9.40;69.20;;;;;;4078172;29;20306;-88
2023/04/16 02:30:16;;;;;;;;;;;9.50;69.30;;;;;;4077223;29;20700;-87
2023/04/16 02:32:20;;;;;;;;;;;9.40;69.30;;;;;;4063380;29;19915;-87
2023/04/16 02:34:22;;;;;;;;;;;9.40;69.20;;;;;;4078660;29;20097;-86
2023/04/16 02:36:23;;;;;;;;;;;9.50;69.40;;;;;;4076488;29;19915;-87
2023/04/16 02:38:23;;;;;;;;;;;9.50;69.40;;;;;;4081091;29;19925;-86
2023/04/16 02:40:32;;;;;;;;;;;9.50;69.30;;;;;;4076385;29;19980;-86
2023/04/16 02:42:33;;;;;;;;;;;9.50;69.40;;;;;;4079011;29;20380;-87
2023/04/16 02:44:52;;;;;;;;;;;9.40;69.40;;;;;;4077866;29;19942;-87
2023/04/16 02:46:52;;;;;;;;;;;9.40;69.40;;;;;;4078670;29;19950;-88
2023/04/16 02:48:53;;;;;;;;;;;9.40;69.40;;;;;;4064384;29;19926;-86
2023/04/16 02:50:54;;;;;;;;;;;9.40;69.40;;;;;;4072601;29;20454;-87
2023/04/16 02:52:58;;;;;;;;;;;9.30;69.30;;;;;;4074705;29;19915;-88
2023/04/16 02:54:59;;;;;;;;;;;9.40;69.50;;;;;;4081802;29;20005;-86
2023/04/16 02:57:01;;;;;;;;;;;9.50;69.70;;;;;;4059453;29;20484;-87
2023/04/16 02:59:01;;;;;;;;;;;9.40;69.60;;;;;;4094289;28;19915;-87
2023/04/16 03:01:02;;;;;;;;;;;9.30;69.80;;;;;;4060020;29;19919;-86
2023/04/16 03:03:05;;;;;;;;;;;9.30;70.20;;;;;;4075544;29;19919;-85
2023/04/16 03:05:06;;;;;;;;;;;9.40;70.10;;;;;;4077492;29;19962;-88
2023/04/16 03:07:08;;;;;;;;;;;9.30;69.90;;;;;;4076005;29;19922;-86
2023/04/16 03:09:11;;;;;;;;;;;9.40;70.70;;;;;;4077930;29;19922;-88
2023/04/16 03:11:12;;;;;;;;;;;9.30;69.90;;;;;;4075035;29;20428;-86
2023/04/16 03:13:13;;;;;;;;;;;9.40;70.10;;;;;;4088536;28;19922;-89
2023/04/16 03:15:13;;;;;;;;;;;9.40;70.20;;;;;;4061078;29;19926;-87
2023/04/16 03:17:14;;;;;;;;;;;9.30;70.10;;;;;;4077054;29;19954;-86
2023/04/16 03:19:15;;;;;;;;;;;9.40;70.30;;;;;;4078047;29;19917;-88
2023/04/16 03:21:15;;;;;;;;;;;9.40;70.30;;;;;;4074526;29;19919;-86
2023/04/16 03:23:16;;;;;;;;;;;9.30;70.20;;;;;;4076302;29;19915;-86
2023/04/16 03:25:17;;;;;;;;;;;9.40;70.30;;;;;;4077323;29;19937;-88
2023/04/16 03:27:18;;;;;;;;;;;9.30;70.20;;;;;;4081290;29;19930;-86
2023/04/16 03:29:19;;;;;;;;;;;9.30;70.40;;;;;;4076820;29;20386;-86
2023/04/16 03:31:28;;;;;;;;;;;9.40;70.40;;;;;;4061910;29;19998;-87
2023/04/16 03:33:29;;;;;;;;;;;9.40;70.40;;;;;;4061529;29;19915;-86
2023/04/16 03:35:32;;;;;;;;;;;9.40;70.40;;;;;;4074208;29;19969;-86
2023/04/16 03:37:36;;;;;;;;;;;9.30;70.30;;;;;;4060279;29;19939;-86
2023/04/16 03:39:36;;;;;;;;;;;9.40;70.40;;;;;;4063395;29;19911;-88
2023/04/16 03:41:37;;;;;;;;;;;9.30;70.50;;;;;;4075608;29;19922;-88
2023/04/16 03:43:38;;;;;;;;;;;9.40;70.70;;;;;;4077660;29;20309;-88
2023/04/16 03:45:45;;;;;;;;;;;9.30;70.70;;;;;;4074251;29;19949;-87
2023/04/16 03:47:51;;;;;;;;;;;9.30;70.70;;;;;;4090280;28;19922;-87
2023/04/16 03:49:52;;;;;;;;;;;9.30;70.80;;;;;;4060717;29;19918;-88
2023/04/16 03:51:53;;;;;;;;;;;9.30;70.70;;;;;;4076719;29;19913;-87
2023/04/16 03:54:01;;;;;;;;;;;9.40;70.70;;;;;;4077808;29;20563;-86
2023/04/16 03:56:02;;;;;;;;;;;9.30;70.70;;;;;;4063206;29;19915;-88
2023/04/16 03:58:03;;;;;;;;;;;9.30;70.80;;;;;;4076531;29;20005;-86
2023/04/16 04:00:27;;;;;;;;;;;9.40;70.80;;;;;;4076498;29;20376;-87
2023/04/16 04:02:36;;;;;;;;;;;9.30;70.70;;;;;;4058378;29;20381;-86
2023/04/16 04:05:00;;;;;;;;;;;9.40;70.80;;;;;;4074623;29;20373;-87
2023/04/16 04:07:01;;;;;;;;;;;9.30;70.70;;;;;;4074447;28;19915;-86
2023/04/16 04:09:21;;;;;;;;;;;9.30;70.70;;;;;;4073574;29;19981;-90
2023/04/16 04:11:42;;;;;;;;;;;9.40;70.80;;;;;;4075511;29;20234;-86
2023/04/16 04:14:04;;;;;;;;;;;9.40;70.90;;;;;;4074527;29;20629;-88
2023/04/16 04:16:33;;;;;;;;;;;9.40;71.00;;;;;;4076709;29;19918;-86
2023/04/16 04:18:54;;;;;;;;;;;9.40;70.90;;;;;;4075270;29;19911;-87
2023/04/16 04:21:15;;;;;;;;;;;9.30;70.80;;;;;;4077620;29;20233;-86
2023/04/16 04:23:36;;;;;;;;;;;9.40;71.00;;;;;;4075553;29;19915;-86
2023/04/16 04:26:06;;;;;;;;;;;9.40;71.00;;;;;;4076537;29;19977;-88
2023/04/16 04:28:19;;;;;;;;;;;9.30;70.90;;;;;;4075362;29;19941;-88
2023/04/16 04:30:20;;;;;;;;;;;9.30;70.90;;;;;;4060346;29;19919;-86
2023/04/16 04:32:20;;;;;;;;;;;9.40;70.90;;;;;;4075107;29;19915;-86
2023/04/16 04:34:30;;;;;;;;;;;9.30;70.90;;;;;;4073505;29;20037;-89
2023/04/16 04:36:40;;;;;;;;;;;9.30;70.90;;;;;;4074709;29;19910;-86
2023/04/16 04:38:40;;;;;;;;;;;9.40;71.20;;;;;;4077514;29;20035;-87
2023/04/16 04:40:41;;;;;;;;;;;9.30;71.00;;;;;;4063608;29;22258;-87
2023/04/16 04:42:42;;;;;;;;;;;9.40;71.00;;;;;;4077967;29;19950;-86
2023/04/16 04:44:43;;;;;;;;;;;9.30;71.00;;;;;;4091769;28;20298;-87
2023/04/16 04:46:43;;;;;;;;;;;9.30;70.90;;;;;;4080020;29;19911;-88
2023/04/16 04:48:44;;;;;;;;;;;9.30;70.90;;;;;;4077224;29;19922;-87
2023/04/16 04:50:45;;;;;;;;;;;9.30;71.00;;;;;;4097389;29;19926;-90
2023/04/16 04:52:46;;;;;;;;;;;9.30;71.00;;;;;;4080499;28;19943;-87
2023/04/16 04:54:46;;;;;;;;;;;9.30;71.00;;;;;;4065383;29;19913;-88
2023/04/16 04:56:54;;;;;;;;;;;9.30;71.30;;;;;;4088336;28;19938;-88
2023/04/16 04:58:55;;;;;;;;;;;9.30;71.10;;;;;;4085418;28;19985;-88
2023/04/16 05:00:55;;;;;;;;;;;9.30;71.90;;;;;;4087532;29;19923;-86
2023/04/16 05:03:02;;;;;;;;;;;9.30;71.20;;;;;;4082674;29;20362;-86
2023/04/16 05:05:03;;;;;;;;;;;9.30;71.20;;;;;;4077758;29;20007;-89
2023/04/16 05:07:05;;;;;;;;;;;9.30;71.20;;;;;;4075772;29;19918;-86
2023/04/16 05:09:10;;;;;;;;;;;9.30;71.20;;;;;;4079485;29;20941;-86
2023/04/16 05:11:10;;;;;;;;;;;9.30;71.30;;;;;;4073451;28;19922;-87
2023/04/16 05:13:11;;;;;;;;;;;9.30;71.20;;;;;;4075310;29;19918;-88
2023/04/16 05:15:12;;;;;;;;;;;9.30;71.30;;;;;;4077325;29;19917;-86
2023/04/16 05:17:12;;;;;;;;;;;9.30;71.30;;;;;;4091303;28;20694;-86
2023/04/16 05:19:13;;;;;;;;;;;9.30;71.30;;;;;;4070750;29;19918;-86
2023/04/16 05:21:13;;;;;;;;;;;9.30;72.20;;;;;;4081227;29;19974;-87
2023/04/16 05:23:34;;;;;;;;;;;9.30;71.50;;;;;;4078648;29;20377;-87
2023/04/16 05:25:46;;;;;;;;;;;9.30;71.40;;;;;;4073989;29;19922;-86
2023/04/16 05:27:47;;;;;;;;;;;9.30;71.50;;;;;;4075786;29;19943;-87
2023/04/16 05:29:48;;;;;;;;;;;9.30;71.50;;;;;;4085443;28;20451;-86
2023/04/16 05:32:12;;;;;;;;;;;9.30;71.60;;;;;;4074640;29;19918;-87
2023/04/16 05:34:36;;;;;;;;;;;9.30;71.70;;;;;;4040129;29;21654;-86
2023/04/16 05:36:56;;;;;;;;;;;9.30;71.80;;;;;;4042937;29;20394;-89
2023/04/16 05:39:17;;;;;;;;;;;9.40;71.80;;;;;;4031990;29;19947;-87
2023/04/16 05:41:38;;;;;;;;;;;9.30;71.90;;;;;;4048097;29;20266;-87
2023/04/16 05:43:58;;;;;;;;;;;9.40;72.10;;;;;;4036615;29;19927;-85
2023/04/16 05:46:19;;;;;;;;;;;9.40;72.50;;;;;;4045031;29;20384;-87
2023/04/16 05:49:09;;;;;;;;;;;9.40;72.80;;;;;;4033109;29;21848;-89
2023/04/16 05:51:31;;;;;;;;;;;9.40;72.70;;;;;;4055351;29;19937;-86
2023/04/16 05:53:57;;;;;;;;;;;9.40;72.50;;;;;;4058618;29;19911;-87
2023/04/16 05:56:18;;;;;;;;;;;9.40;72.50;;;;;;4061434;29;20411;-86
2023/04/16 05:58:38;;;;;;;;;;;9.30;73.30;;;;;;4050882;29;20494;-86
2023/04/16 06:01:00;;;;;;;;;;;9.50;72.50;;;;;;4062394;29;20297;-86
2023/04/16 06:03:35;;;;;;;;;;;9.40;72.40;;;;;;4059688;29;20292;-88
2023/04/16 06:06:02;;;;;;;;;;;9.40;72.40;;;;;;4061206;29;20298;-88
2023/04/16 06:08:22;;;;;;;;;;;9.40;72.40;;;;;;4061028;29;20298;-87
2023/04/16 06:10:45;;;;;;;;;;;9.40;72.70;;;;;;4062320;29;19914;-86
2023/04/16 06:13:15;;;;;;;;;;;9.50;73.00;;;;;;4074407;29;20656;-85
2023/04/16 06:15:35;;;;;;;;;;;9.50;73.00;;;;;;4076003;29;20455;-86
2023/04/16 06:17:56;;;;;;;;;;;9.50;73.60;;;;;;4079352;29;20871;-88
2023/04/16 06:20:45;;;;;;;;;;;9.40;73.50;;;;;;4081282;29;20274;-87
2023/04/16 06:23:11;;;;;;;;;;;9.40;73.20;;;;;;4063367;29;20009;-87
2023/04/16 06:25:35;;;;;;;;;;;9.40;74.80;;;;;;4074147;29;20297;-86
2023/04/16 06:27:36;;;;;;;;;;;9.40;74.10;;;;;;4065410;29;19918;-87
2023/04/16 06:29:39;;;;;;;;;;;9.50;73.80;;;;;;4077970;29;20429;-86
2023/04/16 06:31:49;;;;;;;;;;;9.50;74.20;;;;;;4079471;29;19911;-88
2023/04/16 06:33:53;;;;;;;;;;;9.50;73.70;;;;;;4061651;29;20013;-86
2023/04/16 06:35:53;;;;;;;;;;;9.50;74.10;;;;;;4091078;28;19914;-88
2023/04/16 06:37:54;;;;;;;;;;;9.60;74.40;;;;;;4078128;29;19911;-86
2023/04/16 06:39:55;;;;;;;;;;;9.50;74.40;;;;;;4089259;28;19923;-88
2023/04/16 06:41:56;;;;;;;;;;;9.50;74.50;;;;;;4079392;29;19919;-86
2023/04/16 06:43:56;;;;;;;;;;;9.50;74.60;;;;;;4077378;29;19903;-89
2023/04/16 06:45:57;;;;;;;;;;;9.60;74.40;;;;;;4075964;29;19922;-87
2023/04/16 06:47:57;;;;;;;;;;;9.50;74.40;;;;;;4062465;29;19919;-87
2023/04/16 06:49:59;;;;;;;;;;;9.50;74.40;;;;;;4061309;29;19921;-87
2023/04/16 06:52:01;;;;;;;;;;;9.50;74.50;;;;;;4060301;29;20275;-86
2023/04/16 06:54:02;;;;;;;;;;;9.50;74.60;;;;;;4080632;29;19907;-87
2023/04/16 06:56:02;;;;;;;;;;;9.60;74.80;;;;;;4079185;29;19917;-86
2023/04/16 06:58:04;;;;;;;;;;;9.50;74.90;;;;;;4090337;28;20243;-87
2023/04/16 07:00:05;;;;;;;;;;;9.60;75.00;;;;;;4075239;29;20005;-87
2023/04/16 07:02:07;;;;;;;;;;;9.50;74.80;;;;;;4074894;29;20014;-86
2023/04/16 07:04:10;;;;;;;;;;;9.60;74.80;;;;;;4075431;29;20008;-87
2023/04/16 07:06:15;;;;;;;;;;;9.50;74.50;;;;;;4075052;29;19911;-86
2023/04/16 07:08:15;;;;;;;;;;;9.50;74.50;;;;;;4092289;28;20010;-89
2023/04/16 07:10:16;;;;;;;;;;;9.60;74.90;;;;;;4076729;29;20377;-87
2023/04/16 07:12:18;;;;;;;;;;;9.60;75.20;;;;;;4075127;29;19911;-87
2023/04/16 07:14:19;;;;;;;;;;;9.50;75.10;;;;;;4090069;29;19910;-87
2023/04/16 07:16:20;;;;;;;;;;;9.60;75.20;;;;;;4076634;29;19946;-89
2023/04/16 07:18:21;;;;;;;;;;;9.60;75.00;;;;;;4076524;29;20433;-87
2023/04/16 07:20:31;;;;;;;;;;;9.70;75.00;;;;;;4054506;29;19987;-88
2023/04/16 07:22:38;;;;;;;;;;;9.70;75.10;;;;;;4074277;29;19922;-87
2023/04/16 07:24:48;;;;;;;;;;;9.70;75.30;;;;;;4056863;29;20453;-88
2023/04/16 07:26:48;;;;;;;;;;;9.70;75.20;;;;;;4072812;29;19915;-86
2023/04/16 07:28:54;;;;;;;;;;;9.70;75.20;;;;;;4085551;28;19925;-87
2023/04/16 07:30:58;;;;;;;;;;;9.60;75.00;;;;;;4092280;28;20146;-87
2023/04/16 07:33:05;;;;;;;;;;;9.80;75.00;;;;;;4086026;28;22024;-87
2023/04/16 07:35:06;;;;;;;;;;;9.70;75.10;;;;;;4071214;29;19923;-87
2023/04/16 07:37:11;;;;;;;;;;;9.70;75.00;;;;;;4071765;29;20467;-88
2023/04/16 07:39:12;;;;;;;;;;;9.60;74.50;;;;;;4057115;29;19923;-87
2023/04/16 07:41:32;;;;;;;;;;;9.80;74.70;;;;;;4074137;29;20001;-86
2023/04/16 07:43:53;;;;;;;;;;;9.70;74.60;;;;;;4070724;29;20495;-86
2023/04/16 07:45:54;;;;;;;;;;;9.80;74.70;;;;;;4073077;29;19915;-89
2023/04/16 07:48:14;;;;;;;;;;;9.70;74.60;;;;;;4076283;29;20425;-87
2023/04/16 07:50:35;;;;;;;;;;;9.80;74.80;;;;;;4074132;29;20026;-87
2023/04/16 07:52:55;;;;;;;;;;;9.70;75.00;;;;;;4074736;29;20546;-87
2023/04/16 07:55:31;;;;;;;;;;;9.80;75.00;;;;;;4076401;29;20329;-89
2023/04/16 07:57:54;;;;;;;;;;;9.80;74.80;;;;;;4072998;29;20243;-87
2023/04/16 08:00:15;;;;;;;;;;;9.80;74.70;;;;;;4069658;29;20274;-87
2023/04/16 08:02:35;;;;;;;;;;;9.80;74.90;;;;;;4075345;29;19990;-88
2023/04/16 08:04:36;;;;;;;;;;;9.90;74.80;;;;;;4073247;29;19923;-86
2023/04/16 08:06:38;;;;;;;;;;;9.90;74.80;;;;;;4072335;29;20405;-87
2023/04/16 08:08:39;;;;;;;;;;;10.00;74.40;;;;;;4068865;29;19930;-87
2023/04/16 08:10:40;;;;;;;;;;;9.90;73.70;;;;;;4055474;29;19919;-87
2023/04/16 08:12:40;;;;;;;;;;;10.00;73.80;;;;;;4071998;29;19915;-86
2023/04/16 08:14:41;;;;;;;;;;;10.00;73.30;;;;;;4075625;29;19910;-88
2023/04/16 08:16:42;;;;;;;;;;;10.00;73.10;;;;;;4072426;29;19973;-87
2023/04/16 08:18:42;;;;;;;;;;;10.00;73.20;;;;;;4072812;29;20012;-87
2023/04/16 08:20:46;;;;;;;;;;;10.10;73.40;;;;;;4072369;29;19915;-87
2023/04/16 08:22:49;;;;;;;;;;;10.10;73.50;;;;;;4072908;29;20683;-88
2023/04/16 08:24:59;;;;;;;;;;;10.10;73.80;;;;;;4059928;29;20297;-89
2023/04/16 08:27:00;;;;;;;;;;;10.20;73.80;;;;;;4075783;29;19919;-87
2023/04/16 08:29:01;;;;;;;;;;;10.10;72.90;;;;;;4091288;29;19966;-90
2023/04/16 08:31:02;;;;;;;;;;;10.20;73.20;;;;;;4091666;28;19926;-87
2023/04/16 08:33:06;;;;;;;;;;;10.30;73.00;;;;;;4078018;29;20392;-88
2023/04/16 08:35:07;;;;;;;;;;;10.20;72.20;;;;;;4061088;29;20014;-87
2023/04/16 08:37:15;;;;;;;;;;;10.20;72.40;;;;;;4083634;28;19911;-88
2023/04/16 08:39:16;;;;;;;;;;;10.40;72.40;;;;;;4088064;28;20002;-87
2023/04/16 08:41:17;;;;;;;;;;;10.30;72.20;;;;;;4077256;29;20266;-89
2023/04/16 08:43:18;;;;;;;;;;;10.50;71.90;;;;;;4081221;28;20296;-87
2023/04/16 08:45:19;;;;;;;;;;;10.40;72.00;;;;;;4091161;28;19914;-87
2023/04/16 08:47:21;;;;;;;;;;;10.50;71.70;;;;;;4058164;29;19919;-87
2023/04/16 08:49:22;;;;;;;;;;;10.40;71.00;;;;;;4075430;29;19919;-87
2023/04/16 08:51:26;;;;;;;;;;;10.50;71.20;;;;;;4079404;29;19910;-88
2023/04/16 08:53:42;;;;;;;;;;;10.60;71.30;;;;;;4092496;28;19914;-86
2023/04/16 08:56:03;;;;;;;;;;;10.40;69.90;;;;;;4071904;29;20017;-87
2023/04/16 08:58:14;;;;;;;;;;;10.60;70.00;;;;;;4068827;29;19969;-87
2023/04/16 09:00:42;;;;;;;;;;;10.60;69.80;;;;;;4071309;29;19956;-87
2023/04/16 09:03:02;;;;;;;;;;;10.60;69.80;;;;;;4067333;29;19915;-88
2023/04/16 09:05:28;;;;;;;;;;;10.70;70.00;;;;;;4068906;29;19910;-89
2023/04/16 09:07:48;;;;;;;;;;;10.70;69.80;;;;;;4076724;29;19937;-87
2023/04/16 09:10:09;;;;;;;;;;;10.70;69.40;;;;;;4065594;29;19977;-87
2023/04/16 09:12:35;;;;;;;;;;;10.70;69.30;;;;;;4086751;28;20034;-88
2023/04/16 09:14:58;;;;;;;;;;;10.80;69.00;;;;;;4071741;29;19919;-87
2023/04/16 09:17:19;;;;;;;;;;;10.90;68.80;;;;;;4084310;29;19914;-88
2023/04/16 09:19:39;;;;;;;;;;;10.80;68.80;;;;;;4085599;29;19919;-87
2023/04/16 09:22:00;;;;;;;;;;;10.90;68.80;;;;;;4074898;29;19982;-86
2023/04/16 09:24:20;;;;;;;;;;;10.90;68.40;;;;;;4074047;29;19922;-88
2023/04/16 09:27:01;;;;;;;;;;;10.80;66.60;;;;;;4077134;29;19918;-88
2023/04/16 09:29:54;;;;;;;;;;;10.90;67.30;;;;;;4072764;29;19922;-87
2023/04/16 09:32:04;;;;;;;;;;;10.90;66.60;;;;;;4031928;29;19925;-87
2023/04/16 09:34:06;;;;;;;;;;;11.00;66.20;;;;;;4049899;29;19955;-87
2023/04/16 09:36:07;;;;;;;;;;;11.00;66.00;;;;;;4065434;29;19934;-87
2023/04/16 09:38:10;;;;;;;;;;;11.10;66.50;;;;;;4043575;29;19915;-88
2023/04/16 09:40:13;;;;;;;;;;;11.00;65.10;;;;;;4053993;29;20120;-87
2023/04/16 09:44:48;;;;;;;;;;;11.00;64.00;;;;;;4031485;29;19916;-88
2023/04/16 09:46:48;;;;;;;;;;;11.10;63.40;;;;;;4026057;29;19923;-88
2023/04/16 09:49:15;;;;;;;;;;;11.00;64.00;;;;;;4015500;29;19920;-88
2023/04/16 09:51:37;;;;;;;;;;;11.10;63.00;;;;;;4018175;29;19920;-88
2023/04/16 09:53:37;;;;;;;;;;;11.20;63.40;;;;;;4015910;29;20115;-87
2023/04/16 09:56:04;;;;;;;;;;;11.10;63.40;;;;;;4027100;29;20840;-87
2023/04/16 09:58:25;;;;;;;;;;;11.00;62.40;;;;;;4018481;29;20003;-87
2023/04/16 10:00:45;;;;;;;;;;;11.00;63.30;;;;;;4031670;29;20057;-89
2023/04/16 10:03:06;;;;;;;;;;;11.10;63.50;;;;;;4043533;29;20010;-89
2023/04/16 10:05:27;;;;;;;;;;;11.10;63.10;;;;;;4050384;29;20026;-87
2023/04/16 10:07:48;;;;;;;;;;;11.00;62.90;;;;;;4046871;29;20026;-88
2023/04/16 10:10:18;;;;;;;;;;;10.90;62.10;;;;;;4045511;29;19919;-87
2023/04/16 10:12:39;;;;;;;;;;;11.00;62.90;;;;;;4042842;29;19914;-88
2023/04/16 10:14:40;;;;;;;;;;;11.00;63.00;;;;;;4029488;29;20750;-88
2023/04/16 10:16:44;;;;;;;;;;;11.00;62.90;;;;;;4045586;29;19911;-89
2023/04/16 10:18:45;;;;;;;;;;;10.90;62.70;;;;;;4032487;29;19987;-89
2023/04/16 10:20:51;;;;;;;;;;;11.00;63.20;;;;;;4053918;28;19937;-90
2023/04/16 10:22:53;;;;;;;;;;;11.00;63.10;;;;;;4074174;29;20013;-88
2023/04/16 10:24:54;;;;;;;;;;;11.00;63.50;;;;;;4063402;29;19919;-89
2023/04/16 10:27:06;;;;;;;;;;;11.10;63.10;;;;;;4076667;28;20389;-88
2023/04/16 10:29:10;;;;;;;;;;;11.00;63.00;;;;;;4068751;29;19926;-87
2023/04/16 10:31:17;;;;;;;;;;;11.00;63.10;;;;;;4064764;29;19938;-90
2023/04/16 10:33:21;;;;;;;;;;;11.00;63.30;;;;;;4067253;29;21235;-89
2023/04/16 10:35:24;;;;;;;;;;;11.00;63.40;;;;;;4080178;29;20389;-88
2023/04/16 10:37:28;;;;;;;;;;;11.00;63.30;;;;;;4058963;29;20331;-89
2023/04/16 10:39:48;;;;;;;;;;;;;;;;;;;;;
2023/04/16 10:42:26;;;;;;;;;;;11.20;63.40;;;;;;4087976;29;19921;-88
2023/04/16 10:44:40;;;;;;;;;;;11.10;63.50;;;;;;4077750;29;19918;-88
2023/04/16 10:49:38;;;;;;;;;;;11.10;63.90;;;;;;4085811;29;19930;-88
2023/04/16 10:54:35;;;;;;;;;;;11.00;64.60;;;;;;4111403;28;19914;-88
2023/04/16 10:56:59;;;;;;;;;;;11.10;64.20;;;;;;4096339;28;19950;-88
2023/04/16 10:59:06;;;;;;;;;;;11.10;63.90;;;;;;4065213;29;19914;-90
2023/04/16 11:01:31;;;;;;;;;;;11.00;64.60;;;;;;4085842;29;19922;-88
2023/04/16 11:03:32;;;;;;;;;;;11.00;64.60;;;;;;4069939;29;19974;-88
2023/04/16 11:06:08;;;;;;;;;;;11.10;64.70;;;;;;4086969;29;19933;-89
2023/04/16 11:08:34;;;;;;;;;;;11.10;65.00;;;;;;4088260;29;19938;-91
2023/04/16 11:10:57;;;;;;;;;;;11.20;64.90;;;;;;4082134;29;19919;-89
2023/04/16 11:13:18;;;;;;;;;;;11.20;64.90;;;;;;4088700;29;19911;-88
2023/04/16 11:15:39;;;;;;;;;;;11.30;64.70;;;;;;4084158;29;19919;-88
2023/04/16 11:21:20;;;;;;;;;;;11.20;63.70;;;;;;4086436;29;19910;-87
2023/04/16 11:23:49;;;;;;;;;;;11.30;63.70;;;;;;4087426;29;19965;-87
2023/04/16 11:26:18;;;;;;;;;;;11.20;62.70;;;;;;4098579;28;19937;-88
2023/04/16 11:28:39;;;;;;;;;;;11.30;63.00;;;;;;4084401;29;19915;-88
2023/04/16 11:31:09;;;;;;;;;;;11.30;62.10;;;;;;4084976;29;19992;-87
2023/04/16 11:35:57;;;;;;;;;;;11.30;63.00;;;;;;4062446;29;21064;-89
2023/04/16 11:37:58;;;;;;;;;;;11.30;64.10;;;;;;4076989;28;19945;-87
2023/04/16 11:40:00;;;;;;;;;;;11.30;64.10;;;;;;4089703;29;19914;-90
2023/04/16 11:42:03;;;;;;;;;;;11.30;63.80;;;;;;4084224;29;20317;-91
2023/04/16 11:44:22;;;;;;;;;;;11.30;63.70;;;;;;4071011;29;20001;-88
2023/04/16 11:46:36;;;;;;;;;;;11.40;63.90;;;;;;4093557;28;19929;-92
2023/04/16 11:48:50;;;;;;;;;;;11.40;64.20;;;;;;4074701;29;20321;-90
2023/04/16 11:50:54;;;;;;;;;;;11.50;64.20;;;;;;4099162;28;19914;-88
2023/04/16 11:53:19;;;;;;;;;;;;;;;;;;;;;
2023/04/16 11:55:49;;;;;;;;;;;11.50;63.70;;;;;;4094002;28;19911;-88
2023/04/16 11:57:49;;;;;;;;;;;11.50;63.20;;;;;;4084829;29;20005;-90
2023/04/16 11:59:50;;;;;;;;;;;11.60;63.50;;;;;;4069506;29;19930;-88
2023/04/16 12:04:39;;;;;;;;;;;11.60;63.70;;;;;;4140268;23;19934;-87
2023/04/16 12:09:27;;;;;;;;;;;11.70;63.90;;;;;;4085030;29;19954;-89
2023/04/16 12:14:25;;;;;;;;;;;11.80;64.20;;;;;;4139769;23;20433;-87
2023/04/16 12:16:28;;;;;;;;;;;11.80;63.90;;;;;;4084383;29;19914;-88
2023/04/16 12:18:57;;;;;;;;;;;11.90;64.10;;;;;;4084304;29;19915;-91
2023/04/16 12:20:57;;;;;;;;;;;11.90;64.10;;;;;;4082992;29;19919;-89
2023/04/16 12:29:32;;;;;;;;;;;12.10;63.20;;;;;;3671481;26;19977;-87
2023/04/16 12:31:36;;;;;;;;;;;12.00;63.00;;;;;;4103642;28;19929;-88
2023/04/16 12:33:37;;;;;;;;;;;12.10;62.90;;;;;;4098035;28;19989;-86
2023/04/16 12:35:38;;;;;;;;;;;12.10;63.20;;;;;;4083104;29;19915;-88
2023/04/16 12:37:39;;;;;;;;;;;12.20;63.00;;;;;;4067579;29;19915;-87
2023/04/16 12:40:00;;;;;;;;;;;12.10;62.40;;;;;;4087369;28;19981;-90
2023/04/16 12:44:44;;;;;;;;;;;12.20;62.60;;;;;;4124680;23;20187;-88
2023/04/16 12:47:14;;;;;;;;;;;12.30;62.30;;;;;;4076891;29;19965;-88
2023/04/16 12:49:39;;;;;;;;;;;12.30;62.40;;;;;;4072402;29;19926;-87
2023/04/16 12:51:59;;;;;;;;;;;12.30;62.60;;;;;;4300965;23;19934;-86
2023/04/16 12:57:29;;;;;;;;;;;12.30;63.30;;;;;;4060891;29;19922;-87
2023/04/16 12:59:45;;;;;;;;;;;12.30;64.10;;;;;;4063987;29;19911;-87
2023/04/16 13:02:18;;;;;;;;;;;12.30;63.70;;;;;;4056453;29;20477;-87
2023/04/16 13:04:39;;;;;;;;;;;12.30;63.30;;;;;;4043450;29;19937;-90
2023/04/16 13:09:51;;;;;;;;;;;12.50;63.40;;;;;;4063653;29;19929;-87
2023/04/16 13:12:24;;;;;;;;;;;12.50;63.30;;;;;;4070608;29;19915;-89
2023/04/16 13:14:44;;;;;;;;;;;12.50;62.40;;;;;;4073938;29;20204;-89
2023/04/16 13:17:12;;;;;;;;;;;12.50;62.40;;;;;;4076643;29;19931;-88
2023/04/16 13:19:44;;;;;;;;;;;12.50;62.40;;;;;;4073274;29;19912;-89